This is the latest recevied weather packets stored in our database for station/object SQ8NA-15. If no packets are shown the sender has not sent any weather packets the latest 10 day(s).
| Time | Temp. | Humidity | Pressure | Rain* | Wind** | Luminosity | Snow |
|---|---|---|---|---|---|---|---|
| 1787489813 | 19.44° C | 49% | 983.6 hPa | 0 mm | - | 624 W/m² | - |
| 1787488587 | 20° C | 46% | 983.6 hPa | 0 mm | - | 652 W/m² | - |
| 1787487987 | 19.44° C | 50% | 983.5 hPa | 0 mm | - | 185 W/m² | - |
| 1787487373 | 19.44° C | 48% | 983.5 hPa | 0 mm | - | 721 W/m² | - |
| 1787483097 | 19.44° C | 51% | 983.6 hPa | 0 mm | - | 692 W/m² | - |
| 1787482487 | 20.56° C | 48% | 983.5 hPa | 0 mm | - | 788 W/m² | - |
| 1787481261 | 20.56° C | 49% | 983.5 hPa | 0 mm | - | 347 W/m² | - |
| 1787480647 | 18.89° C | 52% | 983.6 hPa | 0 mm | - | 235 W/m² | - |
| 1787480037 | 20° C | 52% | 983.7 hPa | 0 mm | - | 204 W/m² | - |
| 1787478811 | 20° C | 51% | 983.6 hPa | 0 mm | - | 720 W/m² | - |
| 1787478197 | 19.44° C | 55% | 983.7 hPa | 0 mm | - | 700 W/m² | - |
| 1787477587 | 19.44° C | 55% | 983.7 hPa | 0 mm | - | 706 W/m² | - |
| 1787476361 | 18.89° C | 58% | 983.7 hPa | 0 mm | - | 136 W/m² | - |
| 1787475747 | 18.89° C | 59% | 983.6 hPa | 0 mm | - | 717 W/m² | - |
| 1787474511 | 19.44° C | 57% | 983.7 hPa | 0 mm | - | 604 W/m² | - |
| 1787473897 | 18.89° C | 61% | 983.7 hPa | 0 mm | - | 638 W/m² | - |
| 1787473287 | 18.33° C | 64% | 983.7 hPa | 0 mm | - | 642 W/m² | - |
| 1787472061 | 19.44° C | 59% | 983.7 hPa | 0 mm | - | 212 W/m² | - |
| 1787471461 | 18.89° C | 62% | 983.7 hPa | 0 mm | - | 498 W/m² | - |
| 1787470848 | 19.44° C | 64% | 983.6 hPa | 0 mm | - | 455 W/m² | - |
| 1787469636 | 18.89° C | 65% | 983.5 hPa | 0 mm | - | 390 W/m² | - |
| 1787469024 | 18.33° C | 66% | 983.6 hPa | 0 mm | - | 353 W/m² | - |
| 1787468412 | 17.78° C | 65% | 983.6 hPa | 0 mm | - | 322 W/m² | - |
| 1787467174 | 17.78° C | 66% | 983.5 hPa | 0 mm | - | 265 W/m² | - |
| 1787466561 | 17.78° C | 65% | 983.5 hPa | 0 mm | - | 236 W/m² | - |
* Rain latest hour (hover to see other rain measurements)
** Current wind speed in m/s (hover to see current wind gust speed)